Bryantsville, Indiana
Current Conditions -  °F | °C
As of 1:29 AM on Monday 26 Jan 2015 (Local Time) from KBMG Reporting Station
Overcast Overcast  
Wind Chill: 11°   Ceiling: 1500
Heat Index: 24°   Visibility: 10mi
Dew Point: 20°   Wind: 16mph
Humidity: 84%   Direction: 10°N
Pressure: 29.84"   Gusts: NA
Location:  38.7366°N, 86.4546°W
Report Text: KBMG 260629Z AUTO 01014KT 10SM OVC015 M04/M07 A2984 RMK AO2 T10441067 $
Loading
Personal Weather Stations






























Interactive Weather Map New forecast layout! Learn more

10-Day Weather Forecast

Advertisements
Track Severe Weather on mobile